Time,TemperatureF,DewpointF,PressureIn,WindDirection,WindDirectionDegrees,WindSpeedMPH,WindSpeedGustMPH,Humidity,HourlyPrecipIn,Conditions,Clouds,dailyrainin,SoftwareType,DateUTC
2013-01-03 00:02:00,28.0,24.0,30.08,SE,135,0.0,1.0,85,0.00,,,0.00,,2013-01-03 06:02:00,
2013-01-03 00:12:00,28.0,24.0,30.08,SE,135,0.0,1.0,85,0.00,,,0.00,,2013-01-03 06:12:00,
2013-01-03 00:22:00,28.0,25.0,30.09,SE,135,0.0,2.0,87,0.00,,,0.00,,2013-01-03 06:22:00,
2013-01-03 00:32:00,28.0,25.0,30.09,South,180,1.0,2.0,88,0.00,,,0.00,,2013-01-03 06:32:00,
2013-01-03 00:42:00,28.0,25.0,30.09,South,180,1.0,2.0,88,0.00,,,0.00,,2013-01-03 06:42:00,
2013-01-03 00:52:00,28.0,25.0,30.09,South,180,1.0,2.0,88,0.00,,,0.00,,2013-01-03 06:52:00,
2013-01-03 01:02:00,26.0,23.0,30.09,South,180,0.0,0.0,88,0.00,,,0.00,,2013-01-03 07:02:00,
2013-01-03 01:12:00,26.0,23.0,30.09,South,180,0.0,0.0,88,0.00,,,0.00,,2013-01-03 07:12:00,
2013-01-03 01:22:00,26.0,23.0,30.10,South,180,0.0,0.0,89,0.00,,,0.00,,2013-01-03 07:22:00,
2013-01-03 01:32:00,26.0,23.0,30.10,South,180,0.0,0.0,89,0.00,,,0.00,,2013-01-03 07:32:00,
2013-01-03 01:42:00,26.0,23.0,30.10,South,180,0.0,0.0,89,0.00,,,0.00,,2013-01-03 07:42:00,
2013-01-03 01:53:00,26.0,23.0,30.09,South,180,0.0,0.0,90,0.00,,,0.00,,2013-01-03 07:53:00,
2013-01-03 02:02:00,26.0,23.0,30.10,South,180,0.0,0.0,90,0.00,,,0.00,,2013-01-03 08:02:00,
2013-01-03 02:12:00,26.0,23.0,30.10,South,180,0.0,0.0,90,0.00,,,0.00,,2013-01-03 08:12:00,
2013-01-03 02:22:00,26.0,23.0,30.10,South,180,0.0,0.0,90,0.00,,,0.00,,2013-01-03 08:22:00,
2013-01-03 02:32:00,25.0,23.0,30.09,SW,225,0.0,0.0,91,0.00,,,0.00,,2013-01-03 08:32:00,
2013-01-03 02:42:00,25.0,23.0,30.09,SW,225,0.0,0.0,91,0.00,,,0.00,,2013-01-03 08:42:00,
2013-01-03 02:53:00,25.0,23.0,30.10,SW,225,0.0,0.0,91,0.00,,,0.00,,2013-01-03 08:53:00,
2013-01-03 03:02:00,25.0,23.0,30.11,SW,225,0.0,2.0,92,0.00,,,0.00,,2013-01-03 09:02:00,
2013-01-03 03:12:00,25.0,23.0,30.11,SW,225,0.0,2.0,92,0.00,,,0.00,,2013-01-03 09:12:00,
2013-01-03 03:22:00,25.0,23.0,30.11,SW,225,0.0,0.0,93,0.00,,,0.00,,2013-01-03 09:22:00,
2013-01-03 03:33:00,25.0,23.0,30.11,East,90,1.0,2.0,93,0.00,,,0.00,,2013-01-03 09:33:00,
2013-01-03 03:43:00,25.0,23.0,30.11,East,90,1.0,2.0,93,0.00,,,0.00,,2013-01-03 09:43:00,
2013-01-03 03:53:00,25.0,23.0,30.11,East,90,1.0,2.0,93,0.00,,,0.00,,2013-01-03 09:53:00,
2013-01-03 04:02:00,25.0,24.0,30.11,South,180,2.0,3.0,96,0.00,,,0.00,,2013-01-03 10:02:00,
2013-01-03 04:12:00,25.0,24.0,30.11,South,180,2.0,3.0,96,0.00,,,0.00,,2013-01-03 10:12:00,
2013-01-03 04:22:00,26.0,26.0,30.12,SSE,158,2.0,3.0,100,0.00,,,0.00,,2013-01-03 10:22:00,
2013-01-03 04:33:00,26.0,26.0,30.12,SSE,158,2.0,3.0,100,0.00,,,0.00,,2013-01-03 10:33:00,
2013-01-03 04:42:00,26.0,26.0,30.12,SSE,158,2.0,3.0,100,0.00,,,0.00,,2013-01-03 10:42:00,
2013-01-03 04:53:00,26.0,26.0,30.12,South,180,3.0,4.0,99,0.00,,,0.00,,2013-01-03 10:53:00,
2013-01-03 05:02:00,26.0,26.0,30.12,South,180,2.0,4.0,99,0.00,,,0.00,,2013-01-03 11:02:00,
2013-01-03 05:12:00,26.0,26.0,30.12,South,180,2.0,4.0,99,0.00,,,0.00,,2013-01-03 11:12:00,
2013-01-03 05:22:00,26.0,26.0,30.12,South,180,2.0,3.0,100,0.00,,,0.00,,2013-01-03 11:22:00,
2013-01-03 05:33:00,25.0,24.0,30.13,SW,225,1.0,2.0,97,0.00,,,0.00,,2013-01-03 11:33:00,
2013-01-03 05:42:00,25.0,24.0,30.13,SW,225,1.0,2.0,97,0.00,,,0.00,,2013-01-03 11:42:00,
2013-01-03 05:53:00,25.0,25.0,30.12,South,180,1.0,3.0,100,0.00,,,0.00,,2013-01-03 11:53:00,
2013-01-03 06:03:00,24.0,24.0,30.14,South,180,2.0,3.0,100,0.00,,,0.00,,2013-01-03 12:03:00,
2013-01-03 06:12:00,24.0,24.0,30.14,South,180,2.0,3.0,100,0.00,,,0.00,,2013-01-03 12:12:00,
2013-01-03 06:22:00,25.0,25.0,30.14,South,180,2.0,3.0,99,0.00,,,0.00,,2013-01-03 12:22:00,
2013-01-03 06:32:00,24.0,24.0,30.15,South,180,0.0,2.0,99,0.00,,,0.00,,2013-01-03 12:32:00,
2013-01-03 06:42:00,24.0,24.0,30.15,South,180,0.0,2.0,99,0.00,,,0.00,,2013-01-03 12:42:00,
2013-01-03 06:53:00,24.0,24.0,30.15,South,180,0.0,2.0,99,0.00,,,0.00,,2013-01-03 12:53:00,
2013-01-03 07:02:00,24.0,24.0,30.16,South,180,0.0,2.0,99,0.00,,,0.00,,2013-01-03 13:02:00,
2013-01-03 07:12:00,24.0,24.0,30.16,South,180,0.0,2.0,99,0.00,,,0.00,,2013-01-03 13:12:00,
2013-01-03 07:22:00,25.0,25.0,30.17,SSE,158,2.0,4.0,99,0.00,,,0.00,,2013-01-03 13:22:00,
2013-01-03 07:33:00,25.0,25.0,30.17,SSE,158,2.0,4.0,99,0.00,,,0.00,,2013-01-03 13:33:00,
2013-01-03 07:42:00,25.0,25.0,30.17,SSE,158,2.0,4.0,99,0.00,,,0.00,,2013-01-03 13:42:00,
2013-01-03 07:53:00,25.0,25.0,30.18,SSE,158,1.0,4.0,99,0.00,,,0.00,,2013-01-03 13:53:00,
2013-01-03 08:03:00,25.0,25.0,30.19,South,180,1.0,2.0,99,0.00,,,0.00,,2013-01-03 14:03:00,
2013-01-03 08:12:00,25.0,25.0,30.19,South,180,1.0,2.0,99,0.00,,,0.00,,2013-01-03 14:12:00,
2013-01-03 08:22:00,27.0,27.0,30.19,South,180,1.0,2.0,99,0.00,,,0.00,,2013-01-03 14:22:00,
2013-01-03 08:33:00,30.0,30.0,30.19,South,180,1.0,2.0,100,0.00,,,0.00,,2013-01-03 14:33:00,
2013-01-03 08:42:00,30.0,30.0,30.19,South,180,1.0,2.0,100,0.00,,,0.00,,2013-01-03 14:42:00,
2013-01-03 08:53:00,33.0,31.0,30.21,SE,135,2.0,3.0,93,0.00,,,0.00,,2013-01-03 14:53:00,
2013-01-03 09:03:00,33.0,31.0,30.21,South,180,2.0,3.0,91,0.00,,,0.00,,2013-01-03 15:03:00,
2013-01-03 09:12:00,33.0,31.0,30.21,South,180,2.0,3.0,91,0.00,,,0.00,,2013-01-03 15:12:00,
2013-01-03 09:22:00,34.0,31.0,30.22,East,90,2.0,4.0,87,0.00,,,0.00,,2013-01-03 15:22:00,
2013-01-03 09:33:00,37.0,33.0,30.23,SE,135,2.0,4.0,84,0.00,,,0.00,,2013-01-03 15:33:00,
2013-01-03 09:43:00,37.0,33.0,30.23,SE,135,2.0,4.0,84,0.00,,,0.00,,2013-01-03 15:43:00,
2013-01-03 09:53:00,37.0,32.0,30.23,SSE,158,2.0,4.0,81,0.00,,,0.00,,2013-01-03 15:53:00,
2013-01-03 10:03:00,41.0,32.0,30.23,SW,225,4.0,8.0,70,0.00,,,0.00,,2013-01-03 16:03:00,
2013-01-03 10:12:00,41.0,32.0,30.23,SW,225,4.0,8.0,70,0.00,,,0.00,,2013-01-03 16:12:00,
2013-01-03 10:22:00,41.0,32.0,30.23,SW,225,4.0,8.0,70,0.00,,,0.00,,2013-01-03 16:22:00,
2013-01-03 10:33:00,41.0,32.0,30.23,SW,225,4.0,8.0,70,0.00,,,0.00,,2013-01-03 16:33:00,
2013-01-03 10:43:00,41.0,32.0,30.23,SW,225,4.0,8.0,70,0.00,,,0.00,,2013-01-03 16:43:00,
2013-01-03 11:23:00,49.0,32.0,30.23,South,180,2.0,6.0,51,0.00,,,0.00,,2013-01-03 17:23:00,
2013-01-03 11:33:00,49.0,32.0,30.23,South,180,2.0,6.0,51,0.00,,,0.00,,2013-01-03 17:33:00,
2013-01-03 11:43:00,49.0,32.0,30.23,South,180,2.0,6.0,51,0.00,,,0.00,,2013-01-03 17:43:00,
2013-01-03 11:52:00,49.0,32.0,30.23,South,180,2.0,6.0,51,0.00,,,0.00,,2013-01-03 17:52:00,
2013-01-03 12:23:00,52.0,24.0,30.19,SW,225,4.0,9.0,33,0.00,,,0.00,,2013-01-03 18:23:00,
2013-01-03 12:33:00,52.0,24.0,30.19,SW,225,4.0,9.0,33,0.00,,,0.00,,2013-01-03 18:33:00,
2013-01-03 12:43:00,52.0,24.0,30.19,SW,225,4.0,9.0,33,0.00,,,0.00,,2013-01-03 18:43:00,
2013-01-03 12:53:00,53.0,23.0,30.17,West,270,5.0,9.0,31,0.00,,,0.00,,2013-01-03 18:53:00,
2013-01-03 12:55:00,54.0,22.0,30.16,SW,225,4.0,8.0,29,0.00,,,0.00,,2013-01-03 18:55:00,
2013-01-03 13:03:00,53.0,23.0,30.17,West,270,5.0,9.0,31,0.00,,,0.00,,2013-01-03 19:03:00,
2013-01-03 13:12:00,53.0,23.0,30.17,West,270,5.0,9.0,31,0.00,,,0.00,,2013-01-03 19:12:00,
2013-01-03 14:03:00,54.0,19.0,30.15,SW,225,5.0,11.0,25,0.00,,,0.00,,2013-01-03 20:03:00,
2013-01-03 14:12:00,54.0,19.0,30.15,SW,225,5.0,11.0,25,0.00,,,0.00,,2013-01-03 20:12:00,
2013-01-03 14:22:00,55.0,19.0,30.15,West,270,2.0,11.0,24,0.00,,,0.00,,2013-01-03 20:22:00,
2013-01-03 14:33:00,55.0,19.0,30.14,West,270,4.0,8.0,24,0.00,,,0.00,,2013-01-03 20:33:00,
2013-01-03 14:42:00,55.0,19.0,30.14,West,270,4.0,8.0,24,0.00,,,0.00,,2013-01-03 20:42:00,
2013-01-03 14:53:00,55.0,18.0,30.14,West,270,6.0,8.0,23,0.00,,,0.00,,2013-01-03 20:53:00,
2013-01-03 15:02:00,55.0,18.0,30.14,SW,225,3.0,9.0,23,0.00,,,0.00,,2013-01-03 21:02:00,
2013-01-03 15:12:00,55.0,18.0,30.14,SW,225,3.0,9.0,23,0.00,,,0.00,,2013-01-03 21:12:00,
2013-01-03 15:22:00,55.0,18.0,30.14,SW,225,3.0,9.0,23,0.00,,,0.00,,2013-01-03 21:22:00,
2013-01-03 15:36:00,55.0,19.0,30.15,SW,225,3.0,6.0,24,0.00,,,0.00,,2013-01-03 21:36:00,
2013-01-03 15:48:00,55.0,19.0,30.15,SW,225,3.0,6.0,24,0.00,,,0.00,,2013-01-03 21:48:00,
2013-01-03 15:53:00,55.0,19.0,30.15,SW,225,3.0,6.0,24,0.00,,,0.00,,2013-01-03 21:53:00,
2013-01-03 16:03:00,52.0,18.0,30.16,SW,225,4.0,8.0,26,0.00,,,0.00,,2013-01-03 22:03:00,
2013-01-03 16:12:00,52.0,18.0,30.16,SW,225,4.0,8.0,26,0.00,,,0.00,,2013-01-03 22:12:00,
2013-01-03 16:22:00,52.0,18.0,30.16,SW,225,4.0,8.0,26,0.00,,,0.00,,2013-01-03 22:22:00,
2013-01-03 16:33:00,52.0,18.0,30.16,SW,225,4.0,8.0,26,0.00,,,0.00,,2013-01-03 22:33:00,
2013-01-03 16:42:00,52.0,18.0,30.16,SW,225,4.0,8.0,26,0.00,,,0.00,,2013-01-03 22:42:00,
2013-01-03 16:53:00,52.0,20.0,30.16,West,270,2.0,8.0,28,0.00,,,0.00,,2013-01-03 22:53:00,
2013-01-03 17:03:00,49.0,20.0,30.17,West,270,2.0,4.0,32,0.00,,,0.00,,2013-01-03 23:03:00,
2013-01-03 17:12:00,49.0,20.0,30.17,West,270,2.0,4.0,32,0.00,,,0.00,,2013-01-03 23:12:00,
2013-01-03 17:22:00,49.0,20.0,30.17,West,270,2.0,4.0,32,0.00,,,0.00,,2013-01-03 23:22:00,
2013-01-03 17:33:00,49.0,20.0,30.17,West,270,2.0,4.0,32,0.00,,,0.00,,2013-01-03 23:33:00,
2013-01-03 17:42:00,49.0,20.0,30.17,West,270,2.0,4.0,32,0.00,,,0.00,,2013-01-03 23:42:00,
2013-01-03 17:53:00,45.0,22.0,30.18,West,270,1.0,3.0,40,0.00,,,0.00,,2013-01-03 23:53:00,
2013-01-03 18:03:00,44.0,22.0,30.17,NW,315,1.0,2.0,42,0.00,,,0.00,,2013-01-04 00:03:00,
2013-01-03 18:12:00,44.0,22.0,30.17,NW,315,1.0,2.0,42,0.00,,,0.00,,2013-01-04 00:12:00,
2013-01-03 18:22:00,42.0,22.0,30.18,West,270,0.0,1.0,44,0.00,,,0.00,,2013-01-04 00:22:00,
2013-01-03 18:32:00,42.0,24.0,30.19,South,180,2.0,2.0,49,0.00,,,0.00,,2013-01-04 00:32:00,
2013-01-03 18:42:00,42.0,24.0,30.19,South,180,2.0,2.0,49,0.00,,,0.00,,2013-01-04 00:42:00,
2013-01-03 18:53:00,42.0,24.0,30.19,South,180,2.0,2.0,49,0.00,,,0.00,,2013-01-04 00:53:00,
2013-01-03 19:02:00,42.0,24.0,30.19,SW,225,1.0,2.0,49,0.00,,,0.00,,2013-01-04 01:02:00,
2013-01-03 19:12:00,42.0,24.0,30.19,SW,225,1.0,2.0,49,0.00,,,0.00,,2013-01-04 01:12:00,
2013-01-03 19:22:00,42.0,25.0,30.19,SW,225,1.0,4.0,50,0.00,,,0.00,,2013-01-04 01:22:00,
2013-01-03 19:33:00,42.0,25.0,30.20,South,180,1.0,2.0,51,0.00,,,0.00,,2013-01-04 01:33:00,
2013-01-03 19:42:00,42.0,25.0,30.20,South,180,1.0,2.0,51,0.00,,,0.00,,2013-01-04 01:42:00,
2013-01-03 19:52:00,41.0,24.0,30.20,SW,225,0.0,2.0,51,0.00,,,0.00,,2013-01-04 01:52:00,
2013-01-03 20:02:00,39.0,24.0,30.20,South,180,1.0,2.0,55,0.00,,,0.00,,2013-01-04 02:02:00,
2013-01-03 20:12:00,39.0,24.0,30.20,South,180,1.0,2.0,55,0.00,,,0.00,,2013-01-04 02:12:00,
2013-01-03 20:22:00,38.0,25.0,30.21,South,180,0.0,2.0,58,0.00,,,0.00,,2013-01-04 02:22:00,
2013-01-03 20:32:00,37.0,24.0,30.21,South,180,0.0,2.0,59,0.00,,,0.00,,2013-01-04 02:32:00,
2013-01-03 20:42:00,37.0,24.0,30.21,South,180,0.0,2.0,59,0.00,,,0.00,,2013-01-04 02:42:00,
2013-01-03 20:52:00,38.0,26.0,30.21,South,180,0.0,2.0,62,0.00,,,0.00,,2013-01-04 02:52:00,
2013-01-03 21:02:00,38.0,26.0,30.21,South,180,0.0,2.0,62,0.00,,,0.00,,2013-01-04 03:02:00,
2013-01-03 21:12:00,38.0,26.0,30.21,South,180,0.0,2.0,62,0.00,,,0.00,,2013-01-04 03:12:00,
2013-01-03 21:22:00,36.0,26.0,30.20,South,180,1.0,2.0,66,0.00,,,0.00,,2013-01-04 03:22:00,
2013-01-03 21:32:00,35.0,26.0,30.21,NE,45,2.0,2.0,68,0.00,,,0.00,,2013-01-04 03:32:00,
2013-01-03 21:43:00,35.0,26.0,30.21,NE,45,2.0,2.0,68,0.00,,,0.00,,2013-01-04 03:43:00,
2013-01-03 21:53:00,34.0,25.0,30.21,NE,45,0.0,2.0,70,0.00,,,0.00,,2013-01-04 03:53:00,
2013-01-03 22:02:00,34.0,26.0,30.21,NE,45,0.0,2.0,73,0.00,,,0.00,,2013-01-04 04:02:00,
2013-01-03 22:12:00,34.0,26.0,30.21,NE,45,0.0,2.0,73,0.00,,,0.00,,2013-01-04 04:12:00,
2013-01-03 22:22:00,35.0,28.0,30.21,South,180,1.0,2.0,75,0.00,,,0.00,,2013-01-04 04:22:00,
2013-01-03 22:32:00,35.0,28.0,30.21,South,180,1.0,2.0,75,0.00,,,0.00,,2013-01-04 04:32:00,
2013-01-03 22:42:00,35.0,28.0,30.21,South,180,1.0,2.0,75,0.00,,,0.00,,2013-01-04 04:42:00,
2013-01-03 22:52:00,33.0,26.0,30.22,SW,225,0.0,2.0,74,0.00,,,0.00,,2013-01-04 04:52:00,
2013-01-03 23:03:00,32.0,26.0,30.23,SW,225,2.0,2.0,77,0.00,,,0.00,,2013-01-04 05:03:00,
2013-01-03 23:12:00,32.0,26.0,30.23,SW,225,2.0,2.0,77,0.00,,,0.00,,2013-01-04 05:12:00,
2013-01-03 23:22:00,33.0,27.0,30.24,South,180,0.0,3.0,78,0.00,,,0.00,,2013-01-04 05:22:00,
2013-01-03 23:33:00,33.0,27.0,30.23,South,180,1.0,2.0,77,0.00,,,0.00,,2013-01-04 05:33:00,
2013-01-03 23:42:00,33.0,27.0,30.23,South,180,1.0,2.0,77,0.00,,,0.00,,2013-01-04 05:42:00,
2013-01-03 23:52:00,33.0,27.0,30.23,South,180,0.0,2.0,77,0.00,,,0.00,,2013-01-04 05:52:00,